Time;durP1;ratioP1;P1;durP2;ratioP2;P2;SDS_P1;SDS_P2;PMS_P1;PMS_P2;Temp;Humidity;BMP_temperature;BMP_pressure;BME280_temperature;BME280_humidity;BME280_pressure;Samples;Min_cycle;Max_cycle;Signal;HPM_P1;HPM_P2
2021/06/15 00:01:08;;;;;;;0.70;0.60;;;17.80;99.90;;;18.05;100.00;-21171.47;5080440;28;20809;-84
2021/06/15 00:03:35;;;;;;;0.70;0.63;;;17.70;99.90;;;17.98;100.00;-21169.44;5057231;28;20438;-85
2021/06/15 00:06:03;;;;;;;0.80;0.70;;;17.70;99.90;;;17.93;100.00;-21168.06;5051644;28;20495;-86
2021/06/15 00:08:31;;;;;;;0.80;0.70;;;17.60;99.90;;;17.84;100.00;-21165.88;5052565;28;20456;-86
2021/06/15 00:10:59;;;;;;;0.70;0.60;;;17.50;99.90;;;17.78;100.00;-21164.22;5051431;28;20430;-86
2021/06/15 00:13:31;;;;;;;0.80;0.70;;;17.50;99.90;;;17.72;100.00;-21162.56;5051423;28;20494;-84
2021/06/15 00:15:58;;;;;;;0.73;0.60;;;17.40;99.90;;;17.67;100.00;-21161.19;5051023;28;20431;-85
2021/06/15 00:18:26;;;;;;;0.80;0.70;;;17.30;99.90;;;17.63;100.00;-21160.09;5055973;28;20470;-86
2021/06/15 00:20:53;;;;;;;0.80;0.70;;;17.30;99.90;;;17.57;100.00;-21158.59;5053095;28;20445;-85
2021/06/15 00:23:21;;;;;;;0.73;0.70;;;17.20;99.90;;;17.52;100.00;-21157.09;5054316;28;20498;-85
2021/06/15 00:25:50;;;;;;;0.80;0.60;;;17.20;99.90;;;17.47;100.00;-21155.72;5055399;28;20842;-86
2021/06/15 00:28:19;;;;;;;0.80;0.70;;;17.10;99.90;;;17.39;100.00;-21153.66;5040609;28;20530;-85
2021/06/15 00:30:48;;;;;;;0.80;0.70;;;17.10;99.90;;;17.42;100.00;-21154.34;5056858;28;20432;-85
2021/06/15 00:33:16;;;;;;;0.80;0.67;;;17.00;99.90;;;17.47;100.00;-21155.84;5063783;28;20419;-85
2021/06/15 00:35:43;;;;;;;0.80;0.70;;;17.00;99.90;;;17.49;100.00;-21156.25;5058537;28;20940;-86
2021/06/15 00:38:12;;;;;;;0.80;0.70;;;17.00;99.90;;;17.52;100.00;-21157.09;5075160;28;20572;-85
2021/06/15 00:40:40;;;;;;;0.70;0.60;;;17.00;99.90;;;17.45;100.00;-21155.16;5059253;28;20438;-86
2021/06/15 00:43:07;;;;;;;0.70;0.60;;;17.00;99.90;;;17.45;100.00;-21155.16;5054790;28;20806;-85
2021/06/15 00:45:35;;;;;;;0.70;0.70;;;17.00;99.90;;;17.37;100.00;-21153.25;5081123;28;20442;-86
2021/06/15 00:48:26;;;;;;;0.70;0.60;;;17.00;99.90;;;17.38;100.00;-21153.38;5061422;28;20452;-85
2021/06/15 00:50:54;;;;;;;0.70;0.60;;;16.90;99.90;;;17.32;100.00;-21151.75;5074651;28;20514;-87
2021/06/15 00:53:22;;;;;;;0.70;0.60;;;16.90;99.90;;;17.25;100.00;-21149.97;5058102;28;20468;-84
2021/06/15 00:55:51;;;;;;;0.70;0.60;;;16.80;99.90;;;17.15;100.00;-21147.22;5091809;28;20476;-85
2021/06/15 00:58:20;;;;;;;0.80;0.70;;;16.80;99.90;;;17.08;100.00;-21145.44;5073876;28;20465;-86
2021/06/15 01:00:49;;;;;;;0.80;0.67;;;16.70;99.90;;;17.01;100.00;-21143.38;5071045;28;20561;-87
2021/06/15 01:03:19;;;;;;;0.70;0.63;;;16.60;99.90;;;16.96;100.00;-21142.13;5054562;28;20962;-86
2021/06/15 01:05:48;;;;;;;0.80;0.70;;;16.60;99.90;;;16.90;100.00;-21140.63;5053332;28;20553;-85
2021/06/15 01:08:29;;;;;;;0.70;0.60;;;16.50;99.90;;;16.85;100.00;-21139.13;5057262;28;20493;-86
2021/06/15 01:11:15;;;;;;;0.70;0.70;;;16.50;99.90;;;16.77;100.00;-21137.06;5057116;28;20769;-86
2021/06/15 01:13:56;;;;;;;0.70;0.60;;;16.40;99.90;;;16.74;100.00;-20846.00;5074500;28;20481;-86
2021/06/15 01:16:34;;;;;;;0.80;0.60;;;16.30;99.90;;;16.70;100.00;-19878.53;5037989;28;20419;-85
2021/06/15 01:19:21;;;;;;;0.70;0.60;;;16.30;99.90;;;16.65;100.00;-18402.25;5044711;28;20467;-86
2021/06/15 01:22:04;;;;;;;0.70;0.60;;;16.30;99.90;;;16.61;100.00;-16462.34;5071116;28;20460;-86
2021/06/15 01:24:42;;;;;;;0.70;0.60;;;16.20;99.90;;;16.58;100.00;-13642.25;5052893;28;20517;-85
2021/06/15 01:27:43;;;;;;;0.70;0.60;;;16.20;99.90;;;16.60;100.00;-9935.28;5063551;28;20434;-87
2021/06/15 01:30:14;;;;;;;0.73;0.63;;;16.10;99.90;;;16.61;100.00;-6813.00;5073491;28;20440;-85
2021/06/15 01:32:52;;;;;;;0.70;0.60;;;16.10;99.90;;;16.56;100.00;-4353.63;5065053;28;20443;-87
2021/06/15 01:35:25;;;;;;;0.70;0.60;;;16.10;99.90;;;16.55;100.00;-2131.72;5053478;28;20441;-85
2021/06/15 01:38:01;;;;;;;0.80;0.70;;;16.10;99.90;;;16.50;100.00;371.25;5055372;28;20860;-85
2021/06/15 01:40:40;;;;;;;0.70;0.60;;;16.00;99.90;;;16.49;100.00;3062.13;5055096;28;20411;-87
2021/06/15 01:43:23;;;;;;;0.80;0.70;;;16.00;99.90;;;16.41;100.00;5779.59;5053289;28;20834;-87
2021/06/15 01:45:56;;;;;;;0.70;0.57;;;16.00;99.90;;;16.37;100.00;9501.78;5052912;28;20500;-86
2021/06/15 01:48:34;;;;;;;0.70;0.60;;;15.90;99.90;;;16.35;100.00;12799.38;5065654;28;20951;-86
2021/06/15 01:51:06;;;;;;;0.80;0.70;;;15.90;99.90;;;16.30;100.00;15986.47;5071516;28;20436;-85
2021/06/15 01:53:44;;;;;;;0.70;0.60;;;15.80;99.90;;;16.34;100.00;17954.00;5072418;28;20474;-86
2021/06/15 01:56:19;;;;;;;0.90;0.80;;;15.90;99.90;;;16.40;100.00;19885.69;5050105;28;20439;-85
2021/06/15 01:58:59;;;;;;;0.77;0.60;;;15.90;99.90;;;16.41;100.00;21045.56;5069668;28;20516;-86
2021/06/15 02:01:29;;;;;;;0.70;0.60;;;15.90;99.90;;;16.34;100.00;22087.59;5072537;28;20932;-86
2021/06/15 02:04:03;;;;;;;0.70;0.70;;;15.90;99.90;;;16.32;100.00;23700.50;5071878;28;20510;-87
2021/06/15 02:06:32;;;;;;;0.80;0.77;;;15.80;99.90;;;16.28;100.00;24913.03;5066686;28;20490;-86
2021/06/15 02:09:02;;;;;;;0.70;0.60;;;15.80;99.90;;;16.28;100.00;25969.38;5063565;28;20464;-86
2021/06/15 02:11:55;;;;;;;0.70;0.60;;;15.80;99.90;;;16.23;100.00;26853.72;5065365;28;20453;-86
2021/06/15 02:14:48;;;;;;;0.80;0.67;;;15.80;99.90;;;16.16;100.00;27804.59;5053601;28;20948;-86
2021/06/15 02:17:33;;;;;;;0.70;0.60;;;15.70;99.90;;;16.10;100.00;28968.19;5063739;28;20476;-85
2021/06/15 02:20:01;;;;;;;0.70;0.60;;;15.70;99.90;;;16.09;100.00;30119.63;5053226;28;20440;-86
2021/06/15 02:22:32;;;;;;;0.77;0.60;;;15.60;99.90;;;16.06;100.00;30764.63;5035810;28;20459;-86
2021/06/15 02:25:03;;;;;;;0.70;0.60;;;15.60;99.90;;;16.09;100.00;31947.50;5053128;28;20442;-85
2021/06/15 02:27:34;;;;;;;0.70;0.60;;;15.60;99.90;;;16.10;100.00;32178.91;5047745;28;20478;-83
2021/06/15 02:30:07;;;;;;;0.73;0.67;;;15.60;99.90;;;16.11;100.00;32631.44;5053096;28;20431;-85
2021/06/15 02:32:45;;;;;;;0.80;0.60;;;15.60;99.90;;;16.05;100.00;32992.47;5058818;28;20482;-87
2021/06/15 02:35:15;;;;;;;0.70;0.60;;;15.60;99.90;;;16.01;100.00;33544.78;5056917;28;20461;-86
2021/06/15 02:37:50;;;;;;;0.70;0.70;;;15.50;99.90;;;15.98;100.00;33758.66;5070908;28;20485;-85
2021/06/15 02:40:18;;;;;;;0.70;0.60;;;15.50;99.90;;;15.94;100.00;34023.91;5061989;28;20438;-86
2021/06/15 02:42:48;;;;;;;0.90;0.80;;;15.50;99.90;;;15.96;100.00;33890.97;5073184;28;20530;-87
2021/06/15 02:45:21;;;;;;;0.70;0.60;;;15.50;99.90;;;15.92;100.00;33780.91;5071542;28;20439;-86
2021/06/15 02:47:52;;;;;;;0.80;0.70;;;15.50;99.90;;;15.86;100.00;34034.28;5067710;28;20494;-84
2021/06/15 02:50:21;;;;;;;0.70;0.60;;;15.40;99.90;;;15.87;100.00;34052.59;5052966;28;20447;-85
2021/06/15 02:52:56;;;;;;;0.70;0.60;;;15.40;99.90;;;15.86;100.00;33474.47;5052498;28;20448;-86
2021/06/15 02:55:33;;;;;;;0.70;0.60;;;15.40;99.90;;;15.86;100.00;33079.06;5057350;28;20430;-83
2021/06/15 02:58:02;;;;;;;0.70;0.50;;;15.40;99.90;;;15.83;100.00;32686.69;5071404;28;20470;-80
2021/06/15 03:00:33;;;;;;;0.70;0.60;;;15.30;99.90;;;15.86;100.00;32375.63;5072541;28;20482;-84
2021/06/15 03:03:06;;;;;;;0.70;0.60;;;15.30;99.90;;;15.81;100.00;32043.81;5089244;28;20429;-85
2021/06/15 03:05:35;;;;;;;0.70;0.60;;;15.30;99.90;;;15.86;100.00;31443.97;5068005;28;20452;-84
2021/06/15 03:08:04;;;;;;;0.80;0.70;;;15.30;99.90;;;15.79;100.00;30883.09;5060734;28;20461;-85
2021/06/15 03:10:33;;;;;;;0.70;0.60;;;15.30;99.90;;;15.76;100.00;30363.22;5072323;28;20958;-85
2021/06/15 03:13:10;;;;;;;0.77;0.70;;;15.30;99.90;;;15.70;100.00;29675.38;5072620;28;20411;-83
2021/06/15 03:15:46;;;;;;;0.70;0.60;;;15.30;99.90;;;15.65;100.00;29049.63;5060336;28;20437;-84
2021/06/15 03:18:26;;;;;;;0.70;0.60;;;15.20;99.90;;;15.63;100.00;28135.78;5078060;28;21047;-84
2021/06/15 03:20:57;;;;;;;0.70;0.60;;;15.20;99.90;;;15.60;100.00;27157.97;5061589;28;20471;-83
2021/06/15 03:23:47;;;;;;;0.70;0.60;;;15.10;99.90;;;15.63;100.00;26301.38;5071013;28;20463;-83
2021/06/15 03:26:23;;;;;;;0.70;0.60;;;15.10;99.90;;;15.61;100.00;25107.31;5055829;28;20438;-86
2021/06/15 03:28:56;;;;;;;0.70;0.60;;;15.10;99.90;;;15.64;100.00;23982.09;5071344;28;20427;-87
2021/06/15 03:31:33;;;;;;;0.97;0.87;;;15.10;99.90;;;15.65;100.00;22777.22;5055180;28;20920;-84
2021/06/15 03:34:04;;;;;;;0.90;0.80;;;15.10;99.90;;;15.62;100.00;21701.47;5067618;28;20950;-84
2021/06/15 03:36:32;;;;;;;0.70;0.60;;;15.10;99.90;;;15.60;100.00;20051.34;5051474;28;20441;-83
2021/06/15 03:39:02;;;;;;;0.70;0.60;;;15.10;99.90;;;15.67;100.00;18975.38;5052206;28;20480;-85
2021/06/15 03:41:32;;;;;;;0.80;0.60;;;15.10;99.90;;;15.69;100.00;18010.34;5072137;28;21070;-83
2021/06/15 03:44:04;;;;;;;0.70;0.60;;;15.20;99.90;;;15.70;100.00;16998.81;5052811;28;20440;-85
2021/06/15 03:46:35;;;;;;;0.70;0.60;;;15.20;99.90;;;15.72;100.00;15500.16;5052746;28;20431;-81
2021/06/15 03:49:08;;;;;;;0.70;0.60;;;15.20;99.90;;;15.83;100.00;14112.19;5067415;28;20494;-85
2021/06/15 03:51:41;;;;;;;0.70;0.63;;;15.20;99.90;;;15.83;100.00;13178.16;5059353;28;20470;-85
2021/06/15 03:54:12;;;;;;;0.70;0.60;;;15.30;99.90;;;15.85;100.00;12027.94;5067226;28;20509;-84
2021/06/15 03:56:43;;;;;;;0.70;0.60;;;15.30;99.90;;;15.86;100.00;10760.47;5052465;28;20502;-87
2021/06/15 03:59:15;;;;;;;0.77;0.70;;;15.30;99.90;;;15.90;100.00;9667.34;5056262;28;20467;-85
2021/06/15 04:01:46;;;;;;;0.70;0.70;;;15.40;99.90;;;15.94;100.00;8516.09;5039325;28;20903;-85
2021/06/15 04:04:16;;;;;;;0.70;0.60;;;15.40;99.90;;;15.96;100.00;7547.94;5071796;28;20486;-88
2021/06/15 04:06:51;;;;;;;0.80;0.70;;;15.40;99.90;;;16.06;100.00;6563.69;5039392;28;20458;-88
2021/06/15 04:09:22;;;;;;;0.70;0.60;;;15.50;99.90;;;16.17;100.00;5791.03;5055601;28;20480;-87
2021/06/15 04:11:54;;;;;;;0.70;0.70;;;15.60;99.90;;;16.29;100.00;5211.97;5056108;28;20762;-85
2021/06/15 04:14:24;;;;;;;0.90;0.90;;;15.70;99.90;;;16.50;100.00;4965.31;5057839;28;20485;-85
2021/06/15 04:16:54;;;;;;;0.70;0.60;;;15.80;99.90;;;16.64;100.00;4799.19;5075635;28;20998;-85
2021/06/15 04:19:32;;;;;;;0.70;0.70;;;15.90;99.90;;;16.71;100.00;4774.66;5076551;28;20469;-84
2021/06/15 04:22:01;;;;;;;0.70;0.60;;;16.10;99.90;;;16.74;100.00;4813.44;5073111;28;20471;-85
2021/06/15 04:24:34;;;;;;;0.70;0.60;;;16.10;99.90;;;16.71;100.00;4555.53;5087562;28;20481;-86
2021/06/15 04:27:02;;;;;;;0.70;0.60;;;16.20;99.90;;;16.72;100.00;4522.53;5055405;28;20446;-86
2021/06/15 04:29:30;;;;;;;0.80;0.70;;;16.20;99.90;;;16.79;100.00;4408.84;5057656;28;20475;-88
2021/06/15 04:32:04;;;;;;;0.70;0.60;;;16.30;99.90;;;16.83;100.00;4488.44;5055918;28;20449;-87
2021/06/15 04:34:39;;;;;;;0.70;0.60;;;16.30;99.90;;;16.82;100.00;4299.63;5053258;28;20541;-85
2021/06/15 04:37:10;;;;;;;0.70;0.60;;;16.30;99.90;;;16.86;100.00;4119.13;5072691;28;20476;-87
2021/06/15 04:39:48;;;;;;;0.70;0.60;;;16.40;99.90;;;17.00;100.00;4251.00;5071397;28;20889;-87
2021/06/15 04:42:25;;;;;;;0.70;0.60;;;16.40;99.90;;;17.05;100.00;4343.50;5074357;28;20433;-86
2021/06/15 04:44:54;;;;;;;0.80;0.70;;;16.50;99.90;;;17.11;100.00;4408.19;5070973;28;20503;-87
2021/06/15 04:47:29;;;;;;;0.70;0.60;;;16.60;99.90;;;17.28;100.00;4624.84;5059999;28;20444;-86
2021/06/15 04:50:03;;;;;;;0.73;0.63;;;16.70;99.90;;;17.48;100.00;4959.38;5054827;28;20443;-86
2021/06/15 04:52:32;;;;;;;0.70;0.60;;;16.80;99.90;;;17.64;100.00;5398.41;5056743;28;20945;-87
2021/06/15 04:55:04;;;;;;;0.70;0.60;;;16.90;99.90;;;17.60;100.00;5676.16;5056010;28;20417;-86
2021/06/15 04:57:38;;;;;;;0.80;0.60;;;17.00;99.90;;;17.63;100.00;6192.41;5055236;28;20457;-86
2021/06/15 05:00:09;;;;;;;1.00;0.90;;;17.00;99.90;;;17.71;100.00;6796.66;5063939;28;20827;-87
2021/06/15 05:02:40;;;;;;;0.70;0.60;;;17.10;99.90;;;17.93;100.00;7250.28;5054932;28;20425;-86
2021/06/15 05:05:11;;;;;;;0.80;0.70;;;17.20;99.90;;;18.01;100.00;7619.91;5054741;28;20410;-87
2021/06/15 05:07:40;;;;;;;0.70;0.60;;;17.30;99.90;;;18.07;100.00;7498.44;5060230;28;20909;-86
2021/06/15 05:10:11;;;;;;;0.80;0.70;;;17.40;99.90;;;18.09;100.00;7427.16;5067979;28;20449;-86
2021/06/15 05:12:43;;;;;;;0.70;0.60;;;17.40;99.90;;;18.16;100.00;7147.13;5053655;28;20973;-83
2021/06/15 05:15:14;;;;;;;0.70;0.60;;;17.50;99.90;;;18.24;100.00;6412.22;5073631;28;20914;-85
2021/06/15 05:17:47;;;;;;;0.80;0.70;;;17.60;99.90;;;18.30;100.00;5275.69;5072536;28;20436;-86
2021/06/15 05:20:19;;;;;;;1.73;1.63;;;17.70;99.90;;;18.31;100.00;3336.47;5072502;28;20467;-86
2021/06/15 05:22:51;;;;;;;0.70;0.60;;;17.70;99.90;;;18.55;100.00;1162.81;5055845;28;20473;-85
2021/06/15 05:25:19;;;;;;;1.63;1.53;;;17.80;99.90;;;18.54;100.00;-1788.09;5073924;28;20422;-84
2021/06/15 05:27:49;;;;;;;1.33;1.23;;;17.90;99.90;;;18.58;100.00;-4024.94;5075236;28;20992;-87
2021/06/15 05:30:17;;;;;;;0.70;0.60;;;18.00;99.90;;;18.79;100.00;-7836.00;5072931;28;20422;-85
2021/06/15 05:32:46;;;;;;;1.43;1.33;;;18.10;99.90;;;18.86;100.00;-12839.41;5073145;28;20453;-86
2021/06/15 05:35:14;;;;;;;0.80;0.70;;;18.20;99.90;;;18.98;100.00;-16764.97;5057354;28;20494;-84
2021/06/15 05:37:44;;;;;;;0.80;0.70;;;18.30;99.90;;;18.93;100.00;-19847.78;5074065;28;20525;-84
2021/06/15 05:40:15;;;;;;;0.70;0.60;;;18.40;99.90;;;19.35;100.00;-21206.13;5074160;28;21005;-87
2021/06/15 05:42:42;;;;;;;0.80;0.70;;;18.60;99.90;;;19.47;100.00;-21209.53;5057724;28;20956;-85
2021/06/15 05:45:12;;;;;;;0.80;0.80;;;18.60;99.90;;;19.38;100.00;-21207.06;5063728;28;20522;-85
2021/06/15 05:47:42;;;;;;;0.70;0.60;;;18.80;99.90;;;19.35;100.00;-21206.13;5073893;28;20424;-84
2021/06/15 05:50:14;;;;;;;0.80;0.60;;;18.80;99.90;;;19.51;100.00;-21210.50;5074456;28;20475;-79
2021/06/15 05:52:44;;;;;;;0.70;0.60;;;18.90;99.90;;;19.73;100.00;-21216.50;5073365;28;20412;-86
2021/06/15 05:55:14;;;;;;;0.70;0.60;;;19.00;99.90;;;19.65;100.00;-21214.19;5074862;28;20411;-80
2021/06/15 05:57:41;;;;;;;0.80;0.70;;;19.10;99.90;;;19.76;100.00;-21217.31;5073860;28;20530;-85
2021/06/15 06:00:16;;;;;;;1.00;0.90;;;19.10;99.90;;;19.82;100.00;-21218.69;5073797;28;20469;-82
2021/06/15 06:02:46;;;;;;;0.70;0.60;;;19.30;99.90;;;20.01;100.00;-21223.88;5073173;28;20419;-82
2021/06/15 06:08:11;;;;;;;0.80;0.80;;;19.50;99.90;;;20.10;100.00;-21226.34;5074005;28;20518;-80
2021/06/15 06:10:39;;;;;;;0.70;0.60;;;19.60;99.90;;;20.23;100.00;-21229.91;5074168;28;20441;-80
2021/06/15 06:13:11;;;;;;;0.80;0.70;;;19.70;99.90;;;20.32;100.00;-21232.09;5074565;28;20404;-82
2021/06/15 06:15:40;;;;;;;0.80;0.70;;;19.80;99.90;;;20.11;100.00;-21226.63;5074659;28;20414;-84
2021/06/15 06:18:11;;;;;;;0.80;0.70;;;19.80;99.90;;;20.16;100.00;-21228.00;5074446;28;20411;-80
2021/06/15 06:20:40;;;;;;;0.80;0.70;;;19.80;99.90;;;20.20;100.00;-21228.94;5056198;28;20463;-81
2021/06/15 06:23:09;;;;;;;0.70;0.60;;;19.90;99.90;;;20.32;100.00;-21232.09;5056843;28;20542;-82
2021/06/15 06:25:37;;;;;;;0.70;0.70;;;20.00;99.90;;;20.48;100.00;-21236.59;5073727;28;20431;-81
2021/06/15 06:28:05;;;;;;;0.80;0.60;;;20.10;99.90;;;20.44;100.00;-21235.38;5071280;28;20428;-81
2021/06/15 06:30:33;;;;;;;0.80;0.70;;;20.20;99.90;;;20.55;100.00;-21238.22;5061744;28;20440;-80
2021/06/15 06:33:01;;;;;;;0.80;0.60;;;20.30;99.90;;;20.82;100.00;-21245.47;5056690;28;20853;-82
2021/06/15 06:35:30;;;;;;;0.70;0.60;;;20.40;99.90;;;21.01;100.00;-21250.66;5052943;28;20446;-83
2021/06/15 06:38:00;;;;;;;0.80;0.60;;;20.50;99.90;;;21.28;100.00;-21257.75;5068820;28;20444;-84
2021/06/15 06:40:29;;;;;;;0.80;0.77;;;20.70;99.90;;;21.22;100.00;-21256.38;5053070;28;20562;-84
2021/06/15 06:42:56;;;;;;;0.70;0.60;;;20.90;99.90;;;21.34;100.00;-21259.38;5052090;28;20448;-85
2021/06/15 06:45:24;;;;;;;0.70;0.60;;;21.00;99.90;;;21.40;100.00;-21261.03;5036173;28;20443;-82
2021/06/15 06:47:52;;;;;;;0.80;0.70;;;21.00;99.90;;;21.37;100.00;-21260.34;5052898;28;20438;-83
2021/06/15 06:50:19;;;;;;;0.80;0.70;;;21.10;99.90;;;21.58;100.00;-21265.78;5053061;28;20442;-83
2021/06/15 06:52:47;;;;;;;0.77;0.63;;;21.20;99.90;;;21.77;100.00;-21270.84;5052885;28;21030;-84
2021/06/15 06:55:20;;;;;;;0.80;0.60;;;21.30;99.90;;;21.94;100.00;-21275.47;5052193;28;20432;-85
2021/06/15 06:57:48;;;;;;;0.80;0.70;;;21.40;99.90;;;21.89;100.00;-21274.09;5052759;28;20440;-82
2021/06/15 07:00:17;;;;;;;0.80;0.63;;;21.50;99.90;;;22.13;100.00;-21280.66;5054002;28;20456;-84
2021/06/15 07:02:48;;;;;;;0.80;0.63;;;21.70;99.90;;;22.11;100.00;-21280.09;5055361;28;20428;-85
2021/06/15 07:05:16;;;;;;;0.70;0.60;;;21.80;99.90;;;22.30;100.00;-21285.16;5064767;28;20415;-87
2021/06/15 07:07:43;;;;;;;0.90;0.80;;;21.90;99.90;;;22.39;100.00;-21287.47;5056229;28;20502;-81
2021/06/15 07:10:13;;;;;;;1.00;0.90;;;21.90;99.90;;;22.65;100.00;-21294.41;5053211;28;20948;-87
2021/06/15 07:12:42;;;;;;;0.80;0.60;;;22.10;99.90;;;22.52;100.00;-21290.88;5036552;28;20446;-85
2021/06/15 07:15:11;;;;;;;0.77;0.67;;;22.20;99.90;;;22.81;100.00;-21298.75;5035277;28;20436;-85
2021/06/15 07:17:38;;;;;;;1.10;1.00;;;22.40;99.90;;;22.87;100.00;-21300.25;5053119;28;20416;-86
2021/06/15 07:20:09;;;;;;;0.80;0.70;;;22.50;99.90;;;23.22;100.00;-21309.66;5069892;28;20471;-88
2021/06/15 07:22:38;;;;;;;0.80;0.70;;;22.70;99.90;;;23.22;100.00;-21309.66;5050448;28;20439;-87
2021/06/15 07:25:08;;;;;;;0.70;0.60;;;22.80;99.90;;;23.23;100.00;-21309.78;5074222;28;20463;-79
2021/06/15 07:27:35;;;;;;;0.70;0.60;;;22.70;99.90;;;23.77;100.00;-21324.19;5074661;28;20428;-84
2021/06/15 07:30:07;;;;;;;0.70;0.60;;;22.90;99.90;;;23.52;100.00;-21317.53;5075233;28;20882;-88
2021/06/15 07:32:36;;;;;;;0.80;0.67;;;23.00;99.90;;;23.36;100.00;-21313.44;5073376;28;20421;-83
2021/06/15 07:35:05;;;;;;;0.70;0.60;;;23.10;99.90;;;23.52;100.00;-21317.66;5072848;28;20574;-85
2021/06/15 07:37:32;;;;;;;0.80;0.67;;;23.20;99.90;;;23.79;100.00;-21324.88;5072584;28;20912;-83
2021/06/15 07:40:00;;;;;;;0.80;0.70;;;23.40;99.90;;;23.90;100.00;-21327.59;5064914;28;20467;-83
2021/06/15 07:42:29;;;;;;;0.70;0.60;;;23.60;99.90;;;24.40;100.00;-21340.91;5071142;28;20454;-87
2021/06/15 07:44:57;;;;;;;0.70;0.60;;;23.90;99.90;;;24.69;100.00;-21348.78;5072643;28;20966;-84
2021/06/15 07:47:26;;;;;;;0.80;0.70;;;24.00;99.90;;;24.75;100.00;-21350.28;5073370;28;20736;-81
2021/06/15 07:50:12;;;;;;;0.70;0.60;;;24.20;99.90;;;24.93;100.00;-21355.00;5072440;28;20484;-84
2021/06/15 07:52:40;;;;;;;0.80;0.70;;;24.30;99.90;;;24.64;100.00;-21347.28;5054983;28;20439;-86
2021/06/15 07:55:10;;;;;;;0.80;0.80;;;24.40;99.90;;;24.51;100.00;-21344.03;5072357;28;20414;-83
2021/06/15 07:57:39;;;;;;;0.80;0.70;;;24.30;99.90;;;24.69;100.00;-21348.78;5072923;28;20769;-83
2021/06/15 08:00:10;;;;;;;0.80;0.60;;;24.40;99.90;;;24.89;100.00;-21354.06;5072678;28;20434;-84
2021/06/15 08:02:44;;;;;;;0.80;0.60;;;24.50;99.90;;;25.17;100.00;-21361.41;5072380;28;20955;-81
2021/06/15 08:05:14;;;;;;;0.80;0.67;;;24.70;99.90;;;25.35;100.00;-21366.28;5055605;28;20402;-84
2021/06/15 08:07:44;;;;;;;0.70;0.60;;;24.80;98.00;;;25.39;100.00;-21367.34;5072349;28;20432;-86
2021/06/15 08:10:13;;;;;;;0.70;0.60;;;24.90;96.20;;;25.47;100.00;-21369.53;5072431;28;20406;-82
2021/06/15 08:12:42;;;;;;;0.80;0.70;;;25.00;96.20;;;25.42;100.00;-21368.16;5072662;28;20442;-83
2021/06/15 08:15:11;;;;;;;0.70;0.50;;;25.10;95.20;;;25.60;100.00;-21372.78;5055264;28;20467;-84
2021/06/15 08:17:39;;;;;;;1.10;1.00;;;25.20;94.60;;;25.78;100.00;-21377.66;5071725;28;20414;-85
2021/06/15 08:20:10;;;;;;;0.70;0.60;;;25.30;93.20;;;25.85;100.00;-21379.41;5073432;28;20457;-86
2021/06/15 08:22:38;;;;;;;0.70;0.60;;;25.40;91.50;;;26.05;100.00;-21384.69;5074107;28;20386;-89
2021/06/15 08:25:08;;;;;;;0.70;0.60;;;25.50;92.00;;;26.22;100.00;-21389.31;5069707;28;20476;-88
2021/06/15 08:27:36;;;;;;;1.20;1.00;;;25.60;91.50;;;25.78;100.00;-21377.78;5057216;28;20439;-89
2021/06/15 08:30:06;;;;;;;0.80;0.70;;;25.70;91.00;;;26.40;100.00;-21394.19;5057257;28;20402;-90
2021/06/15 08:32:37;;;;;;;0.80;0.70;;;25.90;90.20;;;26.55;100.00;-21397.97;5072920;28;20410;-88
2021/06/15 08:35:13;;;;;;;0.80;0.70;;;26.10;87.20;;;26.17;100.00;-21388.09;5071230;28;20414;-82
2021/06/15 08:37:41;;;;;;;0.80;0.60;;;26.30;86.20;;;26.45;100.00;-21395.53;5072007;28;20412;-87
2021/06/15 08:40:10;;;;;;;0.70;0.60;;;26.30;86.10;;;26.94;100.00;-21408.38;5074339;28;20467;-89
2021/06/15 08:42:39;;;;;;;0.70;0.60;;;26.60;88.90;;;27.41;100.00;-21420.81;5075085;28;21014;-86
2021/06/15 08:45:11;;;;;;;0.70;0.60;;;27.00;76.80;;;27.38;100.00;-21420.00;5078043;28;20427;-88
2021/06/15 08:47:43;;;;;;;0.70;0.60;;;27.20;75.70;;;27.90;100.00;-21433.94;5061450;28;20455;-89
2021/06/15 08:50:19;;;;;;;0.70;0.50;;;27.50;71.60;;;28.00;100.00;-21436.38;5061597;28;20431;-85
2021/06/15 08:52:49;;;;;;;0.70;0.60;;;27.70;65.90;;;27.89;100.00;-21433.66;5074411;28;21019;-85
2021/06/15 08:55:19;;;;;;;0.70;0.60;;;27.70;68.20;;;28.23;100.00;-21442.44;5075505;28;20458;-87
2021/06/15 08:57:56;;;;;;;0.70;0.50;;;28.10;67.40;;;28.83;100.00;-21458.50;5076185;28;20419;-90
2021/06/15 09:00:24;;;;;;;0.70;0.60;;;28.50;60.50;;;29.39;100.00;-21473.06;5070669;28;20463;-91
2021/06/15 09:02:52;;;;;;;0.70;0.60;;;28.90;64.40;;;29.95;100.00;-21487.88;5055724;28;20454;-85
2021/06/15 09:05:21;;;;;;;0.70;0.50;;;29.50;54.60;;;30.00;100.00;-21489.22;5075594;28;20411;-82
2021/06/15 09:08:02;;;;;;;0.70;0.50;;;29.70;52.90;;;30.41;100.00;-21500.09;5077647;28;20534;-87
2021/06/15 09:10:33;;;;;;;0.70;0.50;;;30.20;48.70;;;29.98;100.00;-21488.66;5060809;28;20879;-84
2021/06/15 09:13:03;;;;;;;0.70;0.50;;;30.60;45.70;;;30.56;100.00;-21504.00;5058644;28;20517;-83
2021/06/15 09:15:32;;;;;;;0.70;0.50;;;30.60;43.00;;;31.44;100.00;-21527.13;5059485;28;20458;-89
2021/06/15 09:18:00;;;;;;;0.70;0.50;;;31.50;39.00;;;31.43;100.00;-21526.84;5075363;28;20825;-82
2021/06/15 09:20:32;;;;;;;0.70;0.50;;;31.90;38.70;;;31.58;100.00;-21530.88;5058083;28;20561;-88
2021/06/15 09:23:04;;;;;;;0.70;0.50;;;32.40;35.80;;;31.15;100.00;-21519.59;5073993;28;20983;-84
2021/06/15 09:25:34;;;;;;;0.80;0.50;;;32.40;36.50;;;31.76;100.00;-21535.72;5062094;28;20428;-83
2021/06/15 09:28:17;;;;;;;0.80;0.50;;;32.40;33.70;;;32.13;100.00;-21545.22;5078997;28;20493;-81
2021/06/15 09:30:57;;;;;;;0.90;0.80;;;32.30;34.00;;;32.32;100.00;-21550.31;5078380;28;20944;-88
2021/06/15 09:33:42;;;;;;;0.77;0.50;;;32.60;31.20;;;32.65;100.00;-21558.91;5079003;28;20923;-81
2021/06/15 09:36:28;;;;;;;0.70;0.50;;;33.00;28.30;;;32.57;100.00;-21556.91;5074636;28;20510;-85
2021/06/15 09:38:57;;;;;;;0.70;0.50;;;33.00;27.60;;;32.42;100.00;-21552.88;5076953;28;20527;-89
2021/06/15 09:41:37;;;;;;;1.07;0.90;;;33.10;28.00;;;32.40;100.00;-21552.47;5067281;28;20571;-83
2021/06/15 09:44:14;;;;;;;0.80;0.50;;;33.10;25.60;;;31.81;100.00;-21536.78;5060719;28;20438;-88
2021/06/15 09:46:44;;;;;;;0.80;0.50;;;33.30;24.90;;;31.79;100.00;-21536.25;5074918;28;20844;-85
2021/06/15 09:49:13;;;;;;;0.80;0.50;;;33.20;25.50;;;31.28;100.00;-21522.94;5077667;28;20435;-86
2021/06/15 09:51:42;;;;;;;0.80;0.50;;;32.80;26.80;;;32.03;100.00;-21542.69;5075838;28;20428;-88
2021/06/15 09:54:09;;;;;;;0.77;0.50;;;33.10;27.20;;;32.25;100.00;-21548.44;5055910;28;20975;-90
2021/06/15 09:56:41;;;;;;;0.80;0.50;;;33.10;25.70;;;32.79;100.00;-21562.53;5056810;28;20967;-88
2021/06/15 09:59:08;;;;;;;0.80;0.50;;;33.50;24.30;;;33.32;100.00;-21576.44;5053628;28;20439;-89
2021/06/15 10:01:40;;;;;;;0.80;0.60;;;33.70;22.10;;;32.32;100.00;-21550.19;5054102;28;20460;-89
2021/06/15 10:04:16;;;;;;;0.80;0.50;;;33.80;23.70;;;33.03;100.00;-21568.97;5036886;28;20452;-88
2021/06/15 10:06:48;;;;;;;0.80;0.50;;;34.00;22.30;;;33.62;100.00;-21584.47;5056746;28;20504;-88
2021/06/15 10:09:24;;;;;;;0.80;0.50;;;34.30;20.30;;;34.31;100.00;-21602.41;5072758;28;20440;-87
2021/06/15 10:11:53;;;;;;;0.80;0.50;;;34.70;19.40;;;33.26;100.00;-21574.84;5057937;28;20416;-88
2021/06/15 10:14:22;;;;;;;0.80;0.50;;;34.70;22.10;;;34.33;100.00;-21602.94;5057555;28;20507;-88
2021/06/15 10:16:51;;;;;;;0.80;0.50;;;34.90;18.30;;;33.19;100.00;-21573.25;5038827;28;20428;-84
2021/06/15 10:19:19;;;;;;;0.80;0.50;;;34.70;21.20;;;33.18;100.00;-21572.84;5042293;28;20447;-86
2021/06/15 10:21:51;;;;;;;0.80;0.53;;;34.40;19.90;;;33.99;100.00;-21594.13;5062376;28;20467;-87
2021/06/15 10:24:23;;;;;;;0.80;0.50;;;34.70;18.90;;;34.49;100.00;-21607.19;5076034;28;21038;-88
2021/06/15 10:27:02;;;;;;;0.80;0.50;;;35.00;17.10;;;34.80;100.00;-21615.22;5074715;28;20847;-87
2021/06/15 10:29:31;;;;;;;0.80;0.50;;;35.10;16.20;;;33.54;100.00;-21582.34;5074353;28;20951;-82
2021/06/15 10:32:08;;;;;;;0.80;0.50;;;35.00;15.90;;;33.06;100.00;-21569.63;5074069;28;20443;-86